sensor_id;sensor_type;location;lat;lon;timestamp;P1;durP1;ratioP1;P2;durP2;ratioP2
67041;SDS011;53949;47.790;18.750;2023-04-24T00:02:10;9.13;;;4.47;;
67041;SDS011;53949;47.790;18.750;2023-04-24T00:05:14;5.78;;;4.00;;
67041;SDS011;53949;47.790;18.750;2023-04-24T00:08:18;5.82;;;3.85;;
67041;SDS011;53949;47.790;18.750;2023-04-24T00:11:21;5.18;;;4.00;;
67041;SDS011;53949;47.790;18.750;2023-04-24T00:14:25;4.15;;;3.65;;
67041;SDS011;53949;47.790;18.750;2023-04-24T00:17:28;6.90;;;4.20;;
67041;SDS011;53949;47.790;18.750;2023-04-24T00:20:31;8.07;;;4.15;;
67041;SDS011;53949;47.790;18.750;2023-04-24T00:23:43;5.30;;;3.97;;
67041;SDS011;53949;47.790;18.750;2023-04-24T00:26:47;3.87;;;3.50;;
67041;SDS011;53949;47.790;18.750;2023-04-24T00:29:51;6.80;;;3.95;;
67041;SDS011;53949;47.790;18.750;2023-04-24T00:32:54;4.50;;;4.10;;
67041;SDS011;53949;47.790;18.750;2023-04-24T00:35:58;5.13;;;4.10;;
67041;SDS011;53949;47.790;18.750;2023-04-24T00:39:01;6.05;;;4.43;;
67041;SDS011;53949;47.790;18.750;2023-04-24T00:42:05;5.35;;;3.97;;
67041;SDS011;53949;47.790;18.750;2023-04-24T00:45:09;4.10;;;3.70;;
67041;SDS011;53949;47.790;18.750;2023-04-24T00:48:12;8.27;;;4.30;;
67041;SDS011;53949;47.790;18.750;2023-04-24T00:51:15;5.93;;;3.92;;
67041;SDS011;53949;47.790;18.750;2023-04-24T00:54:19;5.35;;;4.10;;
67041;SDS011;53949;47.790;18.750;2023-04-24T00:57:22;7.57;;;4.60;;
67041;SDS011;53949;47.790;18.750;2023-04-24T01:00:26;7.65;;;4.65;;
67041;SDS011;53949;47.790;18.750;2023-04-24T01:03:30;9.02;;;4.95;;
67041;SDS011;53949;47.790;18.750;2023-04-24T01:06:40;4.90;;;4.35;;
67041;SDS011;53949;47.790;18.750;2023-04-24T01:09:43;6.03;;;4.40;;
67041;SDS011;53949;47.790;18.750;2023-04-24T01:12:50;9.00;;;4.68;;
67041;SDS011;53949;47.790;18.750;2023-04-24T01:15:53;6.70;;;4.50;;
67041;SDS011;53949;47.790;18.750;2023-04-24T01:18:57;7.85;;;4.47;;
67041;SDS011;53949;47.790;18.750;2023-04-24T01:22:01;7.60;;;4.57;;
67041;SDS011;53949;47.790;18.750;2023-04-24T01:25:05;6.12;;;4.57;;
67041;SDS011;53949;47.790;18.750;2023-04-24T01:28:09;5.57;;;4.15;;
67041;SDS011;53949;47.790;18.750;2023-04-24T01:31:15;5.85;;;4.25;;
67041;SDS011;53949;47.790;18.750;2023-04-24T01:34:18;6.70;;;4.57;;
67041;SDS011;53949;47.790;18.750;2023-04-24T01:37:21;6.53;;;4.10;;
67041;SDS011;53949;47.790;18.750;2023-04-24T01:40:24;4.82;;;4.20;;
67041;SDS011;53949;47.790;18.750;2023-04-24T01:43:28;6.62;;;4.22;;
67041;SDS011;53949;47.790;18.750;2023-04-24T01:46:32;6.28;;;4.80;;
67041;SDS011;53949;47.790;18.750;2023-04-24T01:49:39;6.82;;;4.05;;
67041;SDS011;53949;47.790;18.750;2023-04-24T01:52:42;8.60;;;5.00;;
67041;SDS011;53949;47.790;18.750;2023-04-24T01:55:46;7.15;;;5.18;;
67041;SDS011;53949;47.790;18.750;2023-04-24T01:58:52;7.30;;;5.12;;
67041;SDS011;53949;47.790;18.750;2023-04-24T02:01:55;4.72;;;4.32;;
67041;SDS011;53949;47.790;18.750;2023-04-24T02:04:59;6.47;;;4.57;;
67041;SDS011;53949;47.790;18.750;2023-04-24T02:08:02;6.97;;;5.03;;
67041;SDS011;53949;47.790;18.750;2023-04-24T02:11:05;4.82;;;4.20;;
67041;SDS011;53949;47.790;18.750;2023-04-24T02:14:08;5.43;;;4.93;;
67041;SDS011;53949;47.790;18.750;2023-04-24T02:17:14;6.32;;;5.00;;
67041;SDS011;53949;47.790;18.750;2023-04-24T02:20:18;8.70;;;3.90;;
67041;SDS011;53949;47.790;18.750;2023-04-24T02:23:21;6.12;;;4.10;;
67041;SDS011;53949;47.790;18.750;2023-04-24T02:26:25;9.70;;;4.93;;
67041;SDS011;53949;47.790;18.750;2023-04-24T02:29:28;4.95;;;4.43;;
67041;SDS011;53949;47.790;18.750;2023-04-24T02:32:32;10.95;;;4.93;;
67041;SDS011;53949;47.790;18.750;2023-04-24T02:35:34;7.78;;;4.20;;
67041;SDS011;53949;47.790;18.750;2023-04-24T02:38:37;7.95;;;4.97;;
67041;SDS011;53949;47.790;18.750;2023-04-24T02:41:40;10.52;;;4.85;;
67041;SDS011;53949;47.790;18.750;2023-04-24T02:44:44;6.68;;;4.30;;
67041;SDS011;53949;47.790;18.750;2023-04-24T02:47:46;4.28;;;3.87;;
67041;SDS011;53949;47.790;18.750;2023-04-24T02:50:50;4.65;;;4.12;;
67041;SDS011;53949;47.790;18.750;2023-04-24T02:53:53;9.10;;;4.20;;
67041;SDS011;53949;47.790;18.750;2023-04-24T02:56:56;7.57;;;4.22;;
67041;SDS011;53949;47.790;18.750;2023-04-24T02:59:59;5.37;;;4.28;;
67041;SDS011;53949;47.790;18.750;2023-04-24T03:03:04;6.32;;;4.30;;
67041;SDS011;53949;47.790;18.750;2023-04-24T03:06:09;6.75;;;4.20;;
67041;SDS011;53949;47.790;18.750;2023-04-24T03:09:13;4.62;;;4.22;;
67041;SDS011;53949;47.790;18.750;2023-04-24T03:12:16;6.20;;;3.78;;
67041;SDS011;53949;47.790;18.750;2023-04-24T03:15:20;6.10;;;4.12;;
67041;SDS011;53949;47.790;18.750;2023-04-24T03:18:23;7.28;;;4.55;;
67041;SDS011;53949;47.790;18.750;2023-04-24T03:21:27;6.87;;;3.97;;
67041;SDS011;53949;47.790;18.750;2023-04-24T03:24:30;5.18;;;4.20;;
67041;SDS011;53949;47.790;18.750;2023-04-24T03:27:34;6.07;;;5.43;;
67041;SDS011;53949;47.790;18.750;2023-04-24T03:30:38;7.12;;;5.65;;
67041;SDS011;53949;47.790;18.750;2023-04-24T03:33:42;8.77;;;5.93;;
67041;SDS011;53949;47.790;18.750;2023-04-24T03:36:45;6.85;;;5.87;;
67041;SDS011;53949;47.790;18.750;2023-04-24T03:39:50;8.80;;;5.78;;
67041;SDS011;53949;47.790;18.750;2023-04-24T03:42:54;7.00;;;5.47;;
67041;SDS011;53949;47.790;18.750;2023-04-24T03:45:58;6.72;;;5.20;;
67041;SDS011;53949;47.790;18.750;2023-04-24T03:49:01;6.18;;;5.50;;
67041;SDS011;53949;47.790;18.750;2023-04-24T03:52:04;6.95;;;5.22;;
67041;SDS011;53949;47.790;18.750;2023-04-24T03:55:08;6.27;;;5.43;;
67041;SDS011;53949;47.790;18.750;2023-04-24T03:58:17;6.68;;;4.82;;
67041;SDS011;53949;47.790;18.750;2023-04-24T04:01:20;6.47;;;4.28;;
67041;SDS011;53949;47.790;18.750;2023-04-24T04:04:24;4.43;;;4.03;;
67041;SDS011;53949;47.790;18.750;2023-04-24T04:07:29;4.30;;;3.42;;
67041;SDS011;53949;47.790;18.750;2023-04-24T04:10:33;4.50;;;3.53;;
67041;SDS011;53949;47.790;18.750;2023-04-24T04:13:36;4.53;;;3.35;;
67041;SDS011;53949;47.790;18.750;2023-04-24T04:16:39;4.07;;;3.45;;
67041;SDS011;53949;47.790;18.750;2023-04-24T04:19:43;3.50;;;3.20;;
67041;SDS011;53949;47.790;18.750;2023-04-24T04:22:46;5.68;;;3.70;;
67041;SDS011;53949;47.790;18.750;2023-04-24T04:25:49;4.68;;;3.87;;
67041;SDS011;53949;47.790;18.750;2023-04-24T04:31:58;5.37;;;3.53;;
67041;SDS011;53949;47.790;18.750;2023-04-24T04:35:02;10.05;;;4.87;;
67041;SDS011;53949;47.790;18.750;2023-04-24T04:38:06;7.05;;;3.70;;
67041;SDS011;53949;47.790;18.750;2023-04-24T04:41:12;4.22;;;3.83;;
67041;SDS011;53949;47.790;18.750;2023-04-24T04:44:15;5.57;;;3.45;;
67041;SDS011;53949;47.790;18.750;2023-04-24T04:47:20;3.90;;;3.50;;
67041;SDS011;53949;47.790;18.750;2023-04-24T04:50:25;12.13;;;4.78;;
67041;SDS011;53949;47.790;18.750;2023-04-24T04:53:30;7.37;;;4.90;;
67041;SDS011;53949;47.790;18.750;2023-04-24T04:56:33;8.13;;;4.60;;
67041;SDS011;53949;47.790;18.750;2023-04-24T04:59:36;7.40;;;5.47;;
67041;SDS011;53949;47.790;18.750;2023-04-24T05:02:41;8.35;;;5.57;;
67041;SDS011;53949;47.790;18.750;2023-04-24T05:05:46;9.35;;;5.15;;
67041;SDS011;53949;47.790;18.750;2023-04-24T05:08:49;5.82;;;4.82;;
67041;SDS011;53949;47.790;18.750;2023-04-24T05:11:53;8.15;;;4.72;;
67041;SDS011;53949;47.790;18.750;2023-04-24T05:14:57;4.37;;;3.97;;
67041;SDS011;53949;47.790;18.750;2023-04-24T05:18:01;5.85;;;4.68;;
67041;SDS011;53949;47.790;18.750;2023-04-24T05:21:04;6.00;;;4.53;;
67041;SDS011;53949;47.790;18.750;2023-04-24T05:24:15;5.32;;;4.43;;
67041;SDS011;53949;47.790;18.750;2023-04-24T05:27:25;9.15;;;4.57;;
67041;SDS011;53949;47.790;18.750;2023-04-24T05:30:28;6.28;;;4.60;;
67041;SDS011;53949;47.790;18.750;2023-04-24T05:33:31;5.00;;;4.10;;
67041;SDS011;53949;47.790;18.750;2023-04-24T05:36:34;8.43;;;4.40;;
67041;SDS011;53949;47.790;18.750;2023-04-24T05:39:37;6.90;;;4.93;;
67041;SDS011;53949;47.790;18.750;2023-04-24T05:42:41;4.95;;;4.50;;
67041;SDS011;53949;47.790;18.750;2023-04-24T05:45:44;4.68;;;4.03;;
67041;SDS011;53949;47.790;18.750;2023-04-24T05:48:47;11.63;;;5.25;;
67041;SDS011;53949;47.790;18.750;2023-04-24T05:51:50;6.50;;;4.90;;
67041;SDS011;53949;47.790;18.750;2023-04-24T05:54:53;8.13;;;4.70;;
67041;SDS011;53949;47.790;18.750;2023-04-24T05:57:57;8.40;;;5.18;;
67041;SDS011;53949;47.790;18.750;2023-04-24T06:01:00;5.80;;;4.68;;
67041;SDS011;53949;47.790;18.750;2023-04-24T06:04:04;6.85;;;4.93;;
67041;SDS011;53949;47.790;18.750;2023-04-24T06:07:10;7.07;;;4.93;;
67041;SDS011;53949;47.790;18.750;2023-04-24T06:10:15;5.43;;;4.93;;
67041;SDS011;53949;47.790;18.750;2023-04-24T06:13:18;8.90;;;5.20;;
67041;SDS011;53949;47.790;18.750;2023-04-24T06:19:27;5.22;;;4.72;;
67041;SDS011;53949;47.790;18.750;2023-04-24T06:22:30;7.07;;;5.07;;
67041;SDS011;53949;47.790;18.750;2023-04-24T06:25:33;6.22;;;5.15;;
67041;SDS011;53949;47.790;18.750;2023-04-24T06:28:37;5.85;;;5.22;;
67041;SDS011;53949;47.790;18.750;2023-04-24T06:31:40;7.93;;;5.22;;
67041;SDS011;53949;47.790;18.750;2023-04-24T06:34:45;7.15;;;5.25;;
67041;SDS011;53949;47.790;18.750;2023-04-24T06:37:48;8.05;;;5.55;;
67041;SDS011;53949;47.790;18.750;2023-04-24T06:40:51;7.12;;;5.18;;
67041;SDS011;53949;47.790;18.750;2023-04-24T06:43:54;6.90;;;5.47;;
67041;SDS011;53949;47.790;18.750;2023-04-24T06:46:57;5.95;;;5.35;;
67041;SDS011;53949;47.790;18.750;2023-04-24T06:50:00;7.55;;;5.37;;
67041;SDS011;53949;47.790;18.750;2023-04-24T06:53:03;8.45;;;6.62;;
67041;SDS011;53949;47.790;18.750;2023-04-24T06:56:08;8.20;;;5.23;;
67041;SDS011;53949;47.790;18.750;2023-04-24T06:59:12;5.28;;;4.62;;
67041;SDS011;53949;47.790;18.750;2023-04-24T07:02:15;5.22;;;4.57;;
67041;SDS011;53949;47.790;18.750;2023-04-24T07:05:18;8.05;;;5.47;;
67041;SDS011;53949;47.790;18.750;2023-04-24T07:08:22;7.40;;;5.15;;
67041;SDS011;53949;47.790;18.750;2023-04-24T07:11:25;6.60;;;4.82;;
67041;SDS011;53949;47.790;18.750;2023-04-24T07:14:31;5.93;;;4.60;;
67041;SDS011;53949;47.790;18.750;2023-04-24T07:17:34;5.87;;;4.55;;
67041;SDS011;53949;47.790;18.750;2023-04-24T07:20:38;8.93;;;5.22;;
67041;SDS011;53949;47.790;18.750;2023-04-24T07:23:41;5.25;;;4.60;;
67041;SDS011;53949;47.790;18.750;2023-04-24T07:26:44;6.80;;;4.97;;
67041;SDS011;53949;47.790;18.750;2023-04-24T07:29:49;9.65;;;4.90;;
67041;SDS011;53949;47.790;18.750;2023-04-24T07:32:52;7.22;;;4.90;;
67041;SDS011;53949;47.790;18.750;2023-04-24T07:35:55;6.03;;;4.72;;
67041;SDS011;53949;47.790;18.750;2023-04-24T07:38:59;6.90;;;5.13;;
67041;SDS011;53949;47.790;18.750;2023-04-24T07:42:03;7.62;;;5.00;;
67041;SDS011;53949;47.790;18.750;2023-04-24T07:45:07;7.73;;;5.20;;
67041;SDS011;53949;47.790;18.750;2023-04-24T07:48:11;5.57;;;5.00;;
67041;SDS011;53949;47.790;18.750;2023-04-24T07:51:18;5.60;;;4.65;;
67041;SDS011;53949;47.790;18.750;2023-04-24T07:54:22;5.93;;;5.07;;
67041;SDS011;53949;47.790;18.750;2023-04-24T07:57:25;10.38;;;4.75;;
67041;SDS011;53949;47.790;18.750;2023-04-24T08:00:29;7.18;;;5.32;;
67041;SDS011;53949;47.790;18.750;2023-04-24T08:03:32;8.02;;;5.10;;
67041;SDS011;53949;47.790;18.750;2023-04-24T08:06:35;9.30;;;5.55;;
67041;SDS011;53949;47.790;18.750;2023-04-24T08:09:38;8.63;;;5.35;;
67041;SDS011;53949;47.790;18.750;2023-04-24T08:12:41;7.97;;;5.35;;
67041;SDS011;53949;47.790;18.750;2023-04-24T08:15:45;9.23;;;6.07;;
67041;SDS011;53949;47.790;18.750;2023-04-24T08:18:48;8.85;;;5.20;;
67041;SDS011;53949;47.790;18.750;2023-04-24T08:21:51;6.43;;;5.45;;
67041;SDS011;53949;47.790;18.750;2023-04-24T08:24:54;11.25;;;6.82;;
67041;SDS011;53949;47.790;18.750;2023-04-24T08:31:03;10.85;;;6.53;;
67041;SDS011;53949;47.790;18.750;2023-04-24T08:34:09;10.60;;;6.15;;
67041;SDS011;53949;47.790;18.750;2023-04-24T08:37:13;9.95;;;5.93;;
67041;SDS011;53949;47.790;18.750;2023-04-24T08:40:17;8.82;;;6.15;;
67041;SDS011;53949;47.790;18.750;2023-04-24T08:43:23;8.63;;;6.35;;
67041;SDS011;53949;47.790;18.750;2023-04-24T08:46:27;9.98;;;5.80;;
67041;SDS011;53949;47.790;18.750;2023-04-24T08:49:33;7.28;;;5.35;;
67041;SDS011;53949;47.790;18.750;2023-04-24T08:52:36;5.97;;;5.37;;
67041;SDS011;53949;47.790;18.750;2023-04-24T08:55:39;6.87;;;5.40;;
67041;SDS011;53949;47.790;18.750;2023-04-24T08:58:44;7.12;;;5.12;;
67041;SDS011;53949;47.790;18.750;2023-04-24T09:01:47;4.00;;;3.53;;
67041;SDS011;53949;47.790;18.750;2023-04-24T09:08:11;5.93;;;3.87;;
67041;SDS011;53949;47.790;18.750;2023-04-24T09:11:17;4.70;;;3.70;;
67041;SDS011;53949;47.790;18.750;2023-04-24T09:14:21;5.20;;;4.07;;
67041;SDS011;53949;47.790;18.750;2023-04-24T09:17:27;5.15;;;3.72;;
67041;SDS011;53949;47.790;18.750;2023-04-24T09:20:31;5.35;;;3.80;;
67041;SDS011;53949;47.790;18.750;2023-04-24T09:23:34;13.60;;;4.70;;
67041;SDS011;53949;47.790;18.750;2023-04-24T09:26:38;5.05;;;4.10;;
67041;SDS011;53949;47.790;18.750;2023-04-24T09:29:54;5.47;;;3.97;;
67041;SDS011;53949;47.790;18.750;2023-04-24T09:33:12;4.78;;;4.32;;
67041;SDS011;53949;47.790;18.750;2023-04-24T09:36:17;5.82;;;4.03;;
67041;SDS011;53949;47.790;18.750;2023-04-24T09:39:20;4.45;;;4.00;;
67041;SDS011;53949;47.790;18.750;2023-04-24T09:42:24;6.10;;;4.57;;
67041;SDS011;53949;47.790;18.750;2023-04-24T09:45:34;7.50;;;4.53;;
67041;SDS011;53949;47.790;18.750;2023-04-24T09:48:38;7.53;;;4.47;;
67041;SDS011;53949;47.790;18.750;2023-04-24T09:51:42;10.93;;;5.80;;
67041;SDS011;53949;47.790;18.750;2023-04-24T09:54:52;5.18;;;4.32;;
67041;SDS011;53949;47.790;18.750;2023-04-24T09:57:57;7.97;;;5.32;;
67041;SDS011;53949;47.790;18.750;2023-04-24T10:01:03;9.35;;;5.22;;
67041;SDS011;53949;47.790;18.750;2023-04-24T10:04:06;7.10;;;5.10;;
67041;SDS011;53949;47.790;18.750;2023-04-24T10:07:09;6.53;;;4.62;;
67041;SDS011;53949;47.790;18.750;2023-04-24T10:10:13;9.77;;;5.00;;
67041;SDS011;53949;47.790;18.750;2023-04-24T10:13:16;4.95;;;4.47;;
67041;SDS011;53949;47.790;18.750;2023-04-24T10:16:20;5.15;;;4.50;;
67041;SDS011;53949;47.790;18.750;2023-04-24T10:19:25;6.65;;;4.75;;
67041;SDS011;53949;47.790;18.750;2023-04-24T10:22:30;7.85;;;5.07;;
67041;SDS011;53949;47.790;18.750;2023-04-24T10:25:34;7.30;;;5.20;;
67041;SDS011;53949;47.790;18.750;2023-04-24T10:28:39;5.60;;;4.75;;
67041;SDS011;53949;47.790;18.750;2023-04-24T10:31:44;4.95;;;4.20;;
67041;SDS011;53949;47.790;18.750;2023-04-24T10:34:50;7.32;;;5.28;;
67041;SDS011;53949;47.790;18.750;2023-04-24T10:38:00;5.62;;;5.03;;
67041;SDS011;53949;47.790;18.750;2023-04-24T10:41:10;9.07;;;5.30;;
67041;SDS011;53949;47.790;18.750;2023-04-24T10:44:18;7.87;;;5.05;;
67041;SDS011;53949;47.790;18.750;2023-04-24T10:47:25;6.30;;;5.22;;
67041;SDS011;53949;47.790;18.750;2023-04-24T10:50:29;9.57;;;5.45;;
67041;SDS011;53949;47.790;18.750;2023-04-24T10:53:55;6.93;;;4.32;;
67041;SDS011;53949;47.790;18.750;2023-04-24T11:00:25;7.90;;;5.57;;
67041;SDS011;53949;47.790;18.750;2023-04-24T11:03:31;8.60;;;5.50;;
67041;SDS011;53949;47.790;18.750;2023-04-24T11:06:36;6.05;;;5.45;;
67041;SDS011;53949;47.790;18.750;2023-04-24T11:09:39;8.02;;;5.85;;
67041;SDS011;53949;47.790;18.750;2023-04-24T11:12:46;8.02;;;6.75;;
67041;SDS011;53949;47.790;18.750;2023-04-24T11:19:25;7.78;;;6.55;;
67041;SDS011;53949;47.790;18.750;2023-04-24T11:22:32;10.57;;;6.97;;
67041;SDS011;53949;47.790;18.750;2023-04-24T11:25:37;7.72;;;6.53;;
67041;SDS011;53949;47.790;18.750;2023-04-24T11:28:46;7.90;;;6.30;;
67041;SDS011;53949;47.790;18.750;2023-04-24T11:31:51;11.98;;;7.07;;
67041;SDS011;53949;47.790;18.750;2023-04-24T11:38:01;10.40;;;7.07;;
67041;SDS011;53949;47.790;18.750;2023-04-24T11:41:25;13.23;;;7.45;;
67041;SDS011;53949;47.790;18.750;2023-04-24T11:44:29;11.90;;;6.87;;
67041;SDS011;53949;47.790;18.750;2023-04-24T11:47:35;11.07;;;7.22;;
67041;SDS011;53949;47.790;18.750;2023-04-24T11:50:38;10.77;;;6.77;;
67041;SDS011;53949;47.790;18.750;2023-04-24T11:53:41;9.82;;;6.78;;
67041;SDS011;53949;47.790;18.750;2023-04-24T11:56:47;10.25;;;6.62;;
67041;SDS011;53949;47.790;18.750;2023-04-24T11:59:50;11.57;;;7.40;;
67041;SDS011;53949;47.790;18.750;2023-04-24T12:03:12;9.65;;;6.87;;
67041;SDS011;53949;47.790;18.750;2023-04-24T12:06:15;11.40;;;6.20;;
67041;SDS011;53949;47.790;18.750;2023-04-24T12:09:19;11.10;;;6.43;;
67041;SDS011;53949;47.790;18.750;2023-04-24T12:12:24;7.78;;;6.57;;
67041;SDS011;53949;47.790;18.750;2023-04-24T12:15:30;9.13;;;6.55;;
67041;SDS011;53949;47.790;18.750;2023-04-24T12:18:34;10.15;;;6.00;;
67041;SDS011;53949;47.790;18.750;2023-04-24T12:21:37;7.55;;;5.60;;
67041;SDS011;53949;47.790;18.750;2023-04-24T12:24:56;5.80;;;5.20;;
67041;SDS011;53949;47.790;18.750;2023-04-24T12:31:07;8.23;;;3.78;;
67041;SDS011;53949;47.790;18.750;2023-04-24T12:34:17;5.37;;;3.78;;
67041;SDS011;53949;47.790;18.750;2023-04-24T12:37:23;7.90;;;4.32;;
67041;SDS011;53949;47.790;18.750;2023-04-24T12:43:33;5.83;;;5.13;;
67041;SDS011;53949;47.790;18.750;2023-04-24T12:46:36;8.05;;;5.57;;
67041;SDS011;53949;47.790;18.750;2023-04-24T12:49:39;8.18;;;5.90;;
67041;SDS011;53949;47.790;18.750;2023-04-24T12:52:42;11.10;;;6.68;;
67041;SDS011;53949;47.790;18.750;2023-04-24T12:55:46;11.63;;;6.60;;
67041;SDS011;53949;47.790;18.750;2023-04-24T12:58:55;9.45;;;6.68;;
67041;SDS011;53949;47.790;18.750;2023-04-24T13:01:58;8.70;;;6.80;;
67041;SDS011;53949;47.790;18.750;2023-04-24T13:05:01;9.73;;;6.82;;
67041;SDS011;53949;47.790;18.750;2023-04-24T13:08:05;10.25;;;6.72;;
67041;SDS011;53949;47.790;18.750;2023-04-24T13:11:08;10.40;;;5.75;;
67041;SDS011;53949;47.790;18.750;2023-04-24T13:14:12;7.03;;;5.80;;
67041;SDS011;53949;47.790;18.750;2023-04-24T13:17:15;12.20;;;6.93;;
67041;SDS011;53949;47.790;18.750;2023-04-24T13:20:19;8.85;;;6.95;;
67041;SDS011;53949;47.790;18.750;2023-04-24T13:23:22;7.40;;;6.37;;
67041;SDS011;53949;47.790;18.750;2023-04-24T13:26:26;9.15;;;5.57;;
67041;SDS011;53949;47.790;18.750;2023-04-24T13:29:29;10.80;;;6.28;;
67041;SDS011;53949;47.790;18.750;2023-04-24T13:32:32;7.72;;;5.90;;
67041;SDS011;53949;47.790;18.750;2023-04-24T13:35:38;10.73;;;6.47;;
67041;SDS011;53949;47.790;18.750;2023-04-24T13:38:41;10.25;;;7.00;;
67041;SDS011;53949;47.790;18.750;2023-04-24T13:41:44;8.73;;;7.43;;
67041;SDS011;53949;47.790;18.750;2023-04-24T13:44:47;8.40;;;7.18;;
67041;SDS011;53949;47.790;18.750;2023-04-24T13:47:50;10.68;;;7.75;;
67041;SDS011;53949;47.790;18.750;2023-04-24T13:50:55;12.40;;;7.82;;
67041;SDS011;53949;47.790;18.750;2023-04-24T13:53:58;9.27;;;7.25;;
67041;SDS011;53949;47.790;18.750;2023-04-24T13:57:02;10.80;;;7.60;;
67041;SDS011;53949;47.790;18.750;2023-04-24T14:00:06;10.10;;;7.82;;
67041;SDS011;53949;47.790;18.750;2023-04-24T14:03:13;8.52;;;7.57;;
67041;SDS011;53949;47.790;18.750;2023-04-24T14:06:17;10.68;;;7.87;;
67041;SDS011;53949;47.790;18.750;2023-04-24T14:09:21;10.55;;;7.70;;
67041;SDS011;53949;47.790;18.750;2023-04-24T14:12:25;11.33;;;8.40;;
67041;SDS011;53949;47.790;18.750;2023-04-24T14:15:30;12.45;;;8.10;;
67041;SDS011;53949;47.790;18.750;2023-04-24T14:18:33;8.75;;;6.97;;
67041;SDS011;53949;47.790;18.750;2023-04-24T14:21:36;8.50;;;6.65;;
67041;SDS011;53949;47.790;18.750;2023-04-24T14:24:39;9.35;;;6.70;;
67041;SDS011;53949;47.790;18.750;2023-04-24T14:27:43;9.32;;;6.15;;
67041;SDS011;53949;47.790;18.750;2023-04-24T14:30:46;9.18;;;6.57;;
67041;SDS011;53949;47.790;18.750;2023-04-24T14:33:52;8.45;;;5.93;;
67041;SDS011;53949;47.790;18.750;2023-04-24T14:36:55;7.70;;;5.53;;
67041;SDS011;53949;47.790;18.750;2023-04-24T14:39:59;7.68;;;5.22;;
67041;SDS011;53949;47.790;18.750;2023-04-24T14:43:22;6.82;;;4.97;;
67041;SDS011;53949;47.790;18.750;2023-04-24T14:46:26;5.07;;;4.57;;
67041;SDS011;53949;47.790;18.750;2023-04-24T14:49:29;6.22;;;4.43;;
67041;SDS011;53949;47.790;18.750;2023-04-24T14:52:33;7.25;;;5.32;;
67041;SDS011;53949;47.790;18.750;2023-04-24T14:55:36;6.20;;;4.72;;
67041;SDS011;53949;47.790;18.750;2023-04-24T14:58:39;8.45;;;5.20;;
67041;SDS011;53949;47.790;18.750;2023-04-24T15:01:42;4.57;;;3.92;;
67041;SDS011;53949;47.790;18.750;2023-04-24T15:04:46;4.93;;;4.28;;
67041;SDS011;53949;47.790;18.750;2023-04-24T15:07:49;6.70;;;4.18;;
67041;SDS011;53949;47.790;18.750;2023-04-24T15:10:52;4.25;;;3.85;;
67041;SDS011;53949;47.790;18.750;2023-04-24T15:13:55;3.37;;;2.87;;
67041;SDS011;53949;47.790;18.750;2023-04-24T15:16:59;3.53;;;3.22;;
67041;SDS011;53949;47.790;18.750;2023-04-24T15:20:02;3.50;;;3.20;;
67041;SDS011;53949;47.790;18.750;2023-04-24T15:23:09;4.20;;;3.13;;
67041;SDS011;53949;47.790;18.750;2023-04-24T15:26:12;3.95;;;3.28;;
67041;SDS011;53949;47.790;18.750;2023-04-24T15:29:15;4.18;;;3.15;;
67041;SDS011;53949;47.790;18.750;2023-04-24T15:32:18;4.22;;;3.05;;
67041;SDS011;53949;47.790;18.750;2023-04-24T15:35:22;3.15;;;2.65;;
67041;SDS011;53949;47.790;18.750;2023-04-24T15:38:25;4.70;;;2.42;;
67041;SDS011;53949;47.790;18.750;2023-04-24T15:41:29;2.97;;;2.05;;
67041;SDS011;53949;47.790;18.750;2023-04-24T15:44:32;2.33;;;2.12;;
67041;SDS011;53949;47.790;18.750;2023-04-24T15:47:35;3.05;;;2.45;;
67041;SDS011;53949;47.790;18.750;2023-04-24T15:50:39;2.22;;;1.98;;
67041;SDS011;53949;47.790;18.750;2023-04-24T15:53:42;3.85;;;2.30;;
67041;SDS011;53949;47.790;18.750;2023-04-24T15:56:45;2.53;;;1.95;;
67041;SDS011;53949;47.790;18.750;2023-04-24T15:59:48;1.97;;;1.87;;
67041;SDS011;53949;47.790;18.750;2023-04-24T16:02:52;2.03;;;1.60;;
67041;SDS011;53949;47.790;18.750;2023-04-24T16:05:56;1.90;;;1.80;;
67041;SDS011;53949;47.790;18.750;2023-04-24T16:08:58;2.90;;;1.85;;
67041;SDS011;53949;47.790;18.750;2023-04-24T16:12:05;4.30;;;1.73;;
67041;SDS011;53949;47.790;18.750;2023-04-24T16:15:10;3.25;;;1.65;;
67041;SDS011;53949;47.790;18.750;2023-04-24T16:18:14;2.37;;;1.80;;
67041;SDS011;53949;47.790;18.750;2023-04-24T16:21:19;1.73;;;1.60;;
67041;SDS011;53949;47.790;18.750;2023-04-24T16:27:27;2.47;;;1.62;;
67041;SDS011;53949;47.790;18.750;2023-04-24T16:30:31;2.15;;;1.52;;
67041;SDS011;53949;47.790;18.750;2023-04-24T16:33:35;1.45;;;1.20;;
67041;SDS011;53949;47.790;18.750;2023-04-24T16:36:40;1.67;;;1.35;;
67041;SDS011;53949;47.790;18.750;2023-04-24T16:39:45;3.62;;;1.70;;
67041;SDS011;53949;47.790;18.750;2023-04-24T16:42:48;2.30;;;1.90;;
67041;SDS011;53949;47.790;18.750;2023-04-24T16:45:52;1.58;;;1.45;;
67041;SDS011;53949;47.790;18.750;2023-04-24T16:48:56;2.00;;;1.80;;
67041;SDS011;53949;47.790;18.750;2023-04-24T16:52:00;2.55;;;1.50;;
67041;SDS011;53949;47.790;18.750;2023-04-24T16:55:04;2.03;;;1.80;;
67041;SDS011;53949;47.790;18.750;2023-04-24T16:58:08;2.42;;;1.77;;
67041;SDS011;53949;47.790;18.750;2023-04-24T17:01:13;2.10;;;1.90;;
67041;SDS011;53949;47.790;18.750;2023-04-24T17:04:16;3.25;;;2.00;;
67041;SDS011;53949;47.790;18.750;2023-04-24T17:07:21;2.10;;;1.90;;
67041;SDS011;53949;47.790;18.750;2023-04-24T17:10:27;4.55;;;2.30;;
67041;SDS011;53949;47.790;18.750;2023-04-24T17:13:32;4.47;;;3.35;;
67041;SDS011;53949;47.790;18.750;2023-04-24T17:16:35;4.68;;;3.10;;
67041;SDS011;53949;47.790;18.750;2023-04-24T17:19:43;4.75;;;2.72;;
67041;SDS011;53949;47.790;18.750;2023-04-24T17:22:46;7.00;;;3.28;;
67041;SDS011;53949;47.790;18.750;2023-04-24T17:25:52;4.28;;;2.90;;
67041;SDS011;53949;47.790;18.750;2023-04-24T17:28:55;3.62;;;2.67;;
67041;SDS011;53949;47.790;18.750;2023-04-24T17:32:01;6.70;;;4.18;;
67041;SDS011;53949;47.790;18.750;2023-04-24T17:35:08;7.20;;;4.68;;
67041;SDS011;53949;47.790;18.750;2023-04-24T17:38:13;5.30;;;4.20;;
67041;SDS011;53949;47.790;18.750;2023-04-24T17:41:18;6.45;;;3.85;;
67041;SDS011;53949;47.790;18.750;2023-04-24T17:44:24;5.07;;;3.67;;
67041;SDS011;53949;47.790;18.750;2023-04-24T17:47:29;5.37;;;2.70;;
67041;SDS011;53949;47.790;18.750;2023-04-24T17:50:36;2.58;;;2.03;;
67041;SDS011;53949;47.790;18.750;2023-04-24T17:53:40;3.67;;;1.85;;
67041;SDS011;53949;47.790;18.750;2023-04-24T17:56:46;2.40;;;1.70;;
67041;SDS011;53949;47.790;18.750;2023-04-24T17:59:49;1.58;;;1.48;;
67041;SDS011;53949;47.790;18.750;2023-04-24T18:02:54;2.78;;;2.10;;
67041;SDS011;53949;47.790;18.750;2023-04-24T18:06:04;3.15;;;2.03;;
67041;SDS011;53949;47.790;18.750;2023-04-24T18:12:14;2.87;;;1.83;;
67041;SDS011;53949;47.790;18.750;2023-04-24T18:15:18;1.73;;;1.60;;
67041;SDS011;53949;47.790;18.750;2023-04-24T18:18:22;1.77;;;1.65;;
67041;SDS011;53949;47.790;18.750;2023-04-24T18:21:27;2.20;;;1.62;;
67041;SDS011;53949;47.790;18.750;2023-04-24T18:24:31;1.92;;;1.65;;
67041;SDS011;53949;47.790;18.750;2023-04-24T18:27:35;2.12;;;1.55;;
67041;SDS011;53949;47.790;18.750;2023-04-24T18:30:42;1.35;;;1.25;;
67041;SDS011;53949;47.790;18.750;2023-04-24T18:33:45;1.52;;;1.42;;
67041;SDS011;53949;47.790;18.750;2023-04-24T18:36:50;4.75;;;1.52;;
67041;SDS011;53949;47.790;18.750;2023-04-24T18:39:56;2.72;;;1.35;;
67041;SDS011;53949;47.790;18.750;2023-04-24T18:43:00;1.37;;;1.27;;
67041;SDS011;53949;47.790;18.750;2023-04-24T18:46:04;1.95;;;1.50;;
67041;SDS011;53949;47.790;18.750;2023-04-24T18:49:08;1.62;;;1.40;;